createdAt,value
2023-07-24T00:00:40.928Z,14.70
2023-07-24T00:03:08.816Z,18.65
2023-07-24T00:05:36.430Z,15.20
2023-07-24T00:08:03.992Z,15.38
2023-07-24T00:10:31.695Z,14.73
2023-07-24T00:12:59.207Z,19.85
2023-07-24T00:15:26.611Z,14.65
2023-07-24T00:17:54.346Z,15.00
2023-07-24T00:20:22.163Z,13.57
2023-07-24T00:22:49.428Z,14.68
2023-07-24T00:25:17.226Z,18.12
2023-07-24T00:27:44.697Z,16.02
2023-07-24T00:30:13.591Z,15.75
2023-07-24T00:32:41.497Z,17.12
2023-07-24T00:35:09.824Z,15.47
2023-07-24T00:37:38.249Z,14.90
2023-07-24T00:40:06.629Z,16.00
2023-07-24T00:42:33.949Z,18.33
2023-07-24T00:45:04.123Z,15.63
2023-07-24T00:47:33.303Z,14.10
2023-07-24T00:50:00.669Z,14.40
2023-07-24T00:52:27.948Z,14.52
2023-07-24T00:54:56.054Z,16.12
2023-07-24T00:57:24.662Z,15.88
2023-07-24T00:59:52.225Z,18.17
2023-07-24T01:02:19.832Z,17.00
2023-07-24T01:04:47.894Z,14.93
2023-07-24T01:07:17.815Z,13.25
2023-07-24T01:09:45.654Z,13.02
2023-07-24T01:12:56.593Z,15.47
2023-07-24T01:15:32.594Z,17.50
2023-07-24T01:18:14.995Z,16.17
2023-07-24T01:20:49.758Z,15.80
2023-07-24T01:23:39.052Z,16.90
2023-07-24T01:26:08.293Z,14.75
2023-07-24T01:31:03.097Z,18.20
2023-07-24T01:33:32.912Z,14.48
2023-07-24T01:36:03.742Z,14.27
2023-07-24T01:38:33.660Z,14.23
2023-07-24T01:41:01.729Z,12.67
2023-07-24T01:43:30.993Z,16.73
2023-07-24T01:45:59.207Z,15.23
2023-07-24T01:48:26.702Z,14.77
2023-07-24T01:50:55.396Z,14.30
2023-07-24T01:53:23.088Z,14.30
2023-07-24T01:55:50.396Z,17.53
2023-07-24T01:58:17.768Z,19.93
2023-07-24T02:00:45.464Z,18.43
2023-07-24T02:03:12.710Z,18.50
2023-07-24T02:05:40.401Z,15.83
2023-07-24T02:08:07.735Z,15.53
2023-07-24T02:10:38.994Z,16.63
2023-07-24T02:13:08.786Z,17.30
2023-07-24T02:15:37.453Z,16.97
2023-07-24T02:20:32.354Z,17.67
2023-07-24T02:22:59.625Z,17.17
2023-07-24T02:25:28.280Z,17.77
2023-07-24T02:27:55.679Z,18.13
2023-07-24T02:30:24.588Z,18.90
2023-07-24T02:32:52.520Z,18.37
2023-07-24T02:35:19.895Z,15.47
2023-07-24T02:37:47.227Z,20.43
2023-07-24T02:40:15.238Z,18.77
2023-07-24T02:42:42.910Z,15.87
2023-07-24T02:45:12.301Z,17.47
2023-07-24T02:47:40.101Z,18.30
2023-07-24T02:50:07.975Z,18.50
2023-07-24T02:52:35.375Z,18.80
2023-07-24T02:55:03.180Z,16.40
2023-07-24T02:57:30.753Z,17.90
2023-07-24T02:59:58.173Z,16.57
2023-07-24T03:02:26.263Z,17.20
2023-07-24T03:04:53.842Z,15.70
2023-07-24T03:07:21.309Z,18.57
2023-07-24T03:09:49.287Z,18.03
2023-07-24T03:12:16.761Z,16.83
2023-07-24T03:14:44.626Z,17.27
2023-07-24T03:17:12.611Z,19.33
2023-07-24T03:19:40.102Z,20.97
2023-07-24T03:22:07.678Z,19.53
2023-07-24T03:24:37.109Z,16.83
2023-07-24T03:27:04.946Z,17.20
2023-07-24T03:29:32.376Z,16.73
2023-07-24T03:32:00.689Z,21.30
2023-07-24T03:34:28.210Z,17.00
2023-07-24T03:36:55.582Z,18.73
2023-07-24T03:39:24.102Z,20.90
2023-07-24T03:41:52.848Z,19.70
2023-07-24T03:44:20.280Z,18.93
2023-07-24T03:46:48.129Z,18.30
2023-07-24T03:49:15.562Z,21.87
2023-07-24T03:51:43.058Z,20.57
2023-07-24T03:54:11.945Z,19.23
2023-07-24T03:56:39.251Z,19.80
2023-07-24T03:59:07.314Z,20.53
2023-07-24T04:01:35.450Z,18.55
2023-07-24T04:04:03.235Z,24.33
2023-07-24T04:06:31.470Z,18.57
2023-07-24T04:11:27.486Z,20.17
2023-07-24T04:13:54.890Z,23.53
2023-07-24T04:16:22.398Z,19.53
2023-07-24T04:18:50.110Z,19.33
2023-07-24T04:21:17.431Z,19.30
2023-07-24T04:23:44.867Z,26.17
2023-07-24T04:26:12.599Z,23.03
2023-07-24T04:28:39.942Z,18.00
2023-07-24T04:31:07.456Z,22.37
2023-07-24T04:33:35.148Z,19.30
2023-07-24T04:36:02.741Z,20.17
2023-07-24T04:38:30.398Z,20.23
2023-07-24T04:40:58.663Z,21.45
2023-07-24T04:43:26.547Z,20.87
2023-07-24T04:45:53.833Z,25.43
2023-07-24T04:48:21.843Z,21.47
2023-07-24T04:50:55.194Z,21.87
2023-07-24T04:53:23.487Z,21.23
2023-07-24T04:55:50.875Z,20.80
2023-07-24T04:58:18.682Z,22.47
2023-07-24T05:00:46.532Z,22.07
2023-07-24T05:03:14.017Z,23.33
2023-07-24T05:05:45.070Z,20.23
2023-07-24T05:08:14.873Z,22.43
2023-07-24T05:10:42.472Z,22.50
2023-07-24T05:13:11.984Z,30.33
2023-07-24T05:15:41.180Z,21.70
2023-07-24T05:18:08.486Z,22.90
2023-07-24T05:20:35.916Z,25.15
2023-07-24T05:23:04.272Z,24.37
2023-07-24T05:25:31.835Z,23.75
2023-07-24T05:27:59.432Z,24.42
2023-07-24T05:30:27.205Z,22.17
2023-07-24T05:32:54.639Z,22.35
2023-07-24T05:35:22.204Z,22.25
2023-07-24T05:37:50.337Z,24.07
2023-07-24T05:40:18.056Z,27.35
2023-07-24T05:42:45.565Z,28.23
2023-07-24T05:45:13.657Z,29.73
2023-07-24T05:47:41.307Z,26.42
2023-07-24T05:50:09.579Z,26.08
2023-07-24T05:52:37.343Z,26.50
2023-07-24T05:55:05.090Z,24.95
2023-07-24T05:57:32.580Z,27.02
2023-07-24T06:00:00.462Z,28.98
2023-07-24T06:02:28.124Z,28.40
2023-07-24T06:04:55.898Z,33.92
2023-07-24T06:07:23.480Z,26.92
2023-07-24T06:09:51.401Z,28.15
2023-07-24T06:12:19.355Z,25.62
2023-07-24T06:14:47.006Z,29.70
2023-07-24T06:17:14.599Z,27.42
2023-07-24T06:19:42.404Z,27.37
2023-07-24T06:22:10.150Z,27.02
2023-07-24T06:24:37.754Z,27.23
2023-07-24T06:27:07.881Z,31.40
2023-07-24T06:29:40.134Z,25.73
2023-07-24T06:32:09.485Z,21.20
2023-07-24T06:34:37.241Z,32.60
2023-07-24T06:37:20.586Z,22.80
2023-07-24T06:39:50.370Z,23.80
2023-07-24T06:42:17.990Z,25.90
2023-07-24T06:44:45.458Z,23.30
2023-07-24T06:47:13.721Z,22.75
2023-07-24T06:49:41.195Z,23.62
2023-07-24T06:52:08.773Z,23.65
2023-07-24T06:54:36.628Z,23.25
2023-07-24T06:57:04.320Z,23.75
2023-07-24T06:59:32.194Z,24.95
2023-07-24T07:01:59.990Z,24.90
2023-07-24T07:04:27.552Z,26.73
2023-07-24T07:06:55.299Z,25.60
2023-07-24T07:09:23.284Z,23.27
2023-07-24T07:11:51.488Z,26.07
2023-07-24T07:14:19.166Z,24.95
2023-07-24T07:16:48.977Z,24.42
2023-07-24T07:19:17.077Z,25.52
2023-07-24T07:21:44.665Z,19.83
2023-07-24T07:24:12.767Z,21.45
2023-07-24T07:26:40.511Z,23.75
2023-07-24T07:29:08.919Z,24.52
2023-07-24T07:31:37.195Z,26.55
2023-07-24T07:34:04.766Z,22.27
2023-07-24T07:36:32.961Z,23.08
2023-07-24T07:39:00.985Z,24.15
2023-07-24T07:41:29.888Z,22.00
2023-07-24T07:43:57.510Z,24.50
2023-07-24T07:46:26.434Z,37.38
2023-07-24T07:48:54.517Z,25.02
2023-07-24T07:51:22.499Z,21.33
2023-07-24T07:53:50.622Z,19.73
2023-07-24T07:56:18.409Z,21.05
2023-07-24T07:58:46.048Z,20.23
2023-07-24T08:01:14.069Z,20.05
2023-07-24T08:03:42.896Z,20.05
2023-07-24T08:06:11.401Z,19.42
2023-07-24T08:08:39.654Z,20.67
2023-07-24T08:13:35.945Z,23.17
2023-07-24T08:18:32.579Z,18.70
2023-07-24T08:21:00.108Z,18.80
2023-07-24T08:23:27.616Z,19.90
2023-07-24T08:25:56.085Z,16.65
2023-07-24T08:28:23.920Z,17.37
2023-07-24T08:31:06.696Z,18.52
2023-07-24T08:33:35.318Z,18.92
2023-07-24T08:36:05.441Z,21.63
2023-07-24T08:38:34.428Z,21.83
2023-07-24T08:41:06.898Z,18.58
2023-07-24T08:43:36.604Z,19.90
2023-07-24T08:46:05.857Z,22.15
2023-07-24T08:48:39.615Z,20.45
2023-07-24T08:51:09.968Z,19.48
2023-07-24T08:53:39.597Z,19.60
2023-07-24T08:56:09.448Z,20.08
2023-07-24T08:58:37.559Z,23.15
2023-07-24T09:01:05.860Z,21.92
2023-07-24T09:03:34.785Z,22.83
2023-07-24T09:06:05.269Z,21.73
2023-07-24T09:08:35.140Z,21.08
2023-07-24T09:11:05.115Z,20.58
2023-07-24T09:13:32.874Z,20.02
2023-07-24T09:16:00.811Z,21.35
2023-07-24T09:18:41.277Z,22.35
2023-07-24T09:21:09.098Z,21.02
2023-07-24T09:23:37.793Z,18.80
2023-07-24T09:26:09.265Z,21.70
2023-07-24T09:28:38.013Z,20.45
2023-07-24T09:31:06.265Z,21.45
2023-07-24T09:33:39.178Z,21.23
2023-07-24T09:36:11.205Z,21.23
2023-07-24T09:38:40.284Z,19.95
2023-07-24T09:41:08.637Z,18.83
2023-07-24T09:46:10.872Z,19.37
2023-07-24T09:48:42.214Z,18.25
2023-07-24T09:51:14.841Z,16.52
2023-07-24T09:53:52.682Z,18.70
2023-07-24T09:59:01.676Z,17.50
2023-07-24T10:01:31.506Z,17.17
2023-07-24T10:04:01.468Z,17.20
2023-07-24T10:06:31.575Z,17.52
2023-07-24T10:09:00.086Z,17.52
2023-07-24T10:13:56.078Z,18.40
2023-07-24T10:16:24.557Z,17.87
2023-07-24T10:18:52.024Z,19.12
2023-07-24T10:21:19.586Z,17.92
2023-07-24T10:23:47.901Z,19.35
2023-07-24T10:26:17.345Z,24.50
2023-07-24T10:28:48.991Z,17.12
2023-07-24T10:31:30.016Z,18.98
2023-07-24T10:34:06.012Z,16.20
2023-07-24T10:36:38.175Z,19.77
2023-07-24T10:39:15.439Z,15.77
2023-07-24T10:41:46.793Z,17.52
2023-07-24T10:44:14.974Z,20.00
2023-07-24T10:46:44.226Z,21.15
2023-07-24T10:49:13.735Z,18.10
2023-07-24T10:51:41.286Z,18.85
2023-07-24T10:54:09.087Z,14.82
2023-07-24T10:56:39.006Z,14.87
2023-07-24T10:59:07.942Z,19.73
2023-07-24T11:01:36.513Z,17.50
2023-07-24T11:04:04.983Z,17.87
2023-07-24T11:06:32.517Z,16.50
2023-07-24T11:09:01.441Z,19.65
2023-07-24T11:11:31.149Z,14.90
2023-07-24T11:13:59.281Z,18.23
2023-07-24T11:16:27.723Z,18.58
2023-07-24T11:18:57.100Z,18.30
2023-07-24T11:21:25.643Z,18.15
2023-07-24T11:23:56.239Z,16.65
2023-07-24T11:26:25.914Z,19.95
2023-07-24T11:28:54.572Z,18.00
2023-07-24T11:31:22.586Z,22.05
2023-07-24T11:33:51.749Z,23.02
2023-07-24T11:36:20.456Z,20.35
2023-07-24T11:38:50.207Z,23.12
2023-07-24T11:41:26.804Z,18.08
2023-07-24T11:43:54.811Z,18.00
2023-07-24T11:46:27.420Z,13.65
2023-07-24T11:48:58.804Z,13.20
2023-07-24T11:51:30.800Z,13.88
2023-07-24T11:54:09.023Z,17.90
2023-07-24T11:56:37.644Z,18.17
2023-07-24T11:59:13.191Z,15.88
2023-07-24T12:01:41.247Z,17.37
2023-07-24T12:04:09.407Z,17.52
2023-07-24T12:09:08.867Z,17.87
2023-07-24T12:11:45.568Z,14.87
2023-07-24T12:14:15.462Z,14.27
2023-07-24T12:16:43.440Z,16.37
2023-07-24T12:19:10.865Z,17.75
2023-07-24T12:21:38.280Z,17.92
2023-07-24T12:24:06.447Z,17.80
2023-07-24T12:26:33.970Z,17.25
2023-07-24T12:29:01.928Z,13.60
2023-07-24T12:31:30.300Z,20.02
2023-07-24T12:33:58.251Z,16.35
2023-07-24T12:36:25.819Z,18.77
2023-07-24T12:38:53.597Z,20.05
2023-07-24T12:41:21.100Z,21.02
2023-07-24T12:43:48.598Z,18.00
2023-07-24T12:46:16.485Z,18.75
2023-07-24T12:48:43.952Z,16.90
2023-07-24T12:51:11.370Z,14.10
2023-07-24T12:53:44.073Z,21.90
2023-07-24T12:56:26.410Z,15.13
2023-07-24T13:01:25.330Z,14.52
2023-07-24T13:03:53.384Z,13.98
2023-07-24T13:06:21.300Z,15.02
2023-07-24T13:08:49.134Z,18.65
2023-07-24T13:11:16.662Z,18.62
2023-07-24T13:13:45.426Z,14.98
2023-07-24T13:16:12.885Z,19.85
2023-07-24T13:18:40.383Z,12.40
2023-07-24T13:21:09.275Z,14.95
2023-07-24T13:23:36.651Z,17.25
2023-07-24T13:26:04.773Z,21.17
2023-07-24T13:28:32.549Z,16.58
2023-07-24T13:31:00.122Z,16.62
2023-07-24T13:33:27.674Z,16.85
2023-07-24T13:35:55.519Z,15.63
2023-07-24T13:38:22.939Z,14.60
2023-07-24T13:40:51.087Z,15.45
2023-07-24T13:43:20.054Z,16.42
2023-07-24T13:45:47.609Z,14.65
2023-07-24T13:48:15.015Z,13.62
2023-07-24T13:50:42.858Z,12.43
2023-07-24T13:53:10.543Z,14.52
2023-07-24T13:55:37.969Z,15.90
2023-07-24T13:58:05.823Z,13.25
2023-07-24T14:00:33.647Z,16.95
2023-07-24T14:05:30.007Z,16.08
2023-07-24T14:07:57.454Z,14.15
2023-07-24T14:10:25.224Z,13.02
2023-07-24T14:12:52.665Z,12.88
2023-07-24T14:15:20.015Z,13.32
2023-07-24T14:17:48.006Z,15.43
2023-07-24T14:20:15.507Z,16.50
2023-07-24T14:22:43.148Z,15.20
2023-07-24T14:27:38.262Z,17.50
2023-07-24T14:30:06.598Z,14.73
2023-07-24T14:32:34.413Z,15.80
2023-07-24T14:35:01.964Z,13.02
2023-07-24T14:37:29.549Z,15.50
2023-07-24T14:39:57.315Z,14.27
2023-07-24T14:42:24.796Z,12.90
2023-07-24T14:44:52.254Z,15.82
2023-07-24T14:47:20.078Z,15.50
2023-07-24T14:49:47.581Z,17.30
2023-07-24T14:52:15.047Z,14.65
2023-07-24T14:54:42.815Z,12.02
2023-07-24T14:57:23.488Z,12.50
2023-07-24T14:59:52.481Z,16.27
2023-07-24T15:02:20.173Z,13.27
2023-07-24T15:04:47.634Z,17.23
2023-07-24T15:07:15.588Z,10.95
2023-07-24T15:09:43.731Z,14.30
2023-07-24T15:12:11.343Z,15.98
2023-07-24T15:14:39.139Z,15.32
2023-07-24T15:17:06.609Z,14.45
2023-07-24T15:19:34.244Z,13.45
2023-07-24T15:22:02.135Z,15.18
2023-07-24T15:24:29.680Z,20.35
2023-07-24T15:26:57.144Z,14.30
2023-07-24T15:29:24.974Z,14.80
2023-07-24T15:31:52.750Z,14.73
2023-07-24T15:34:20.278Z,16.10
2023-07-24T15:36:48.077Z,15.52
2023-07-24T15:39:15.462Z,11.40
2023-07-24T15:41:42.937Z,18.90
2023-07-24T15:44:10.676Z,12.50
2023-07-24T15:46:38.168Z,14.13
2023-07-24T15:51:33.935Z,14.45
2023-07-24T15:54:03.660Z,17.00
2023-07-24T15:56:31.052Z,13.18
2023-07-24T15:58:58.799Z,14.10
2023-07-24T16:01:28.098Z,13.85
2023-07-24T16:03:56.107Z,12.60
2023-07-24T16:06:23.663Z,19.42
2023-07-24T16:11:18.864Z,14.65
2023-07-24T16:13:46.377Z,17.73
2023-07-24T16:18:43.561Z,16.83
2023-07-24T16:21:11.047Z,18.20
2023-07-24T16:23:38.609Z,15.63
2023-07-24T16:26:06.456Z,18.98
2023-07-24T16:28:34.029Z,18.12
2023-07-24T16:31:01.669Z,18.10
2023-07-24T16:33:31.212Z,16.15
2023-07-24T16:35:58.909Z,15.48
2023-07-24T16:38:26.326Z,17.67
2023-07-24T16:40:54.324Z,14.95
2023-07-24T16:43:23.579Z,19.15
2023-07-24T16:48:23.330Z,19.42
2023-07-24T16:50:50.917Z,21.73
2023-07-24T16:53:18.382Z,18.73
2023-07-24T16:55:46.120Z,22.27
2023-07-24T16:58:13.709Z,19.17
2023-07-24T17:00:41.284Z,22.80
2023-07-24T17:03:09.466Z,14.65
2023-07-24T17:05:37.866Z,23.62
2023-07-24T17:08:05.757Z,22.15
2023-07-24T17:10:45.299Z,23.20
2023-07-24T17:13:13.341Z,19.08
2023-07-24T17:15:41.353Z,37.63
2023-07-24T17:18:08.862Z,39.45
2023-07-24T17:20:36.694Z,27.87
2023-07-24T17:25:31.780Z,22.37
2023-07-24T17:27:59.377Z,23.60
2023-07-24T17:30:27.150Z,50.47
2023-07-24T17:32:55.222Z,36.03
2023-07-24T17:35:23.033Z,46.05
2023-07-24T17:37:50.772Z,38.58
2023-07-24T17:40:18.797Z,36.70
2023-07-24T17:42:46.149Z,28.87
2023-07-24T17:45:16.091Z,26.92
2023-07-24T17:48:05.288Z,20.60
2023-07-24T17:50:35.658Z,23.12
2023-07-24T17:53:03.879Z,16.05
2023-07-24T17:55:31.685Z,24.42
2023-07-24T17:57:59.864Z,17.30
2023-07-24T18:00:28.204Z,26.30
2023-07-24T18:02:56.098Z,33.10
2023-07-24T18:05:23.721Z,27.77
2023-07-24T18:07:52.790Z,39.10
2023-07-24T18:10:21.882Z,22.87
2023-07-24T18:12:50.077Z,29.80
2023-07-24T18:15:17.721Z,25.67
2023-07-24T18:17:46.864Z,20.98
2023-07-24T18:20:15.007Z,21.73
2023-07-24T18:22:44.096Z,19.08
2023-07-24T18:25:11.933Z,23.23
2023-07-24T18:27:40.206Z,20.03
2023-07-24T18:30:08.649Z,21.45
2023-07-24T18:32:40.229Z,19.83
2023-07-24T18:37:35.534Z,20.02
2023-07-24T18:40:03.016Z,26.50
2023-07-24T18:42:34.619Z,30.00
2023-07-24T18:45:03.053Z,26.45
2023-07-24T18:47:31.851Z,20.30
2023-07-24T18:49:59.375Z,22.52
2023-07-24T18:52:27.309Z,22.55
2023-07-24T18:54:54.787Z,17.62
2023-07-24T18:57:22.552Z,19.10
2023-07-24T18:59:50.419Z,18.95
2023-07-24T19:02:18.222Z,18.10
2023-07-24T19:04:45.721Z,20.10
2023-07-24T19:07:14.122Z,21.10
2023-07-24T19:09:41.627Z,18.95
2023-07-24T19:12:09.315Z,23.73
2023-07-24T19:14:37.188Z,31.45
2023-07-24T19:17:05.073Z,23.95
2023-07-24T19:19:32.748Z,19.58
2023-07-24T19:22:00.607Z,24.65
2023-07-24T19:24:28.240Z,20.03
2023-07-24T19:26:55.709Z,23.20
2023-07-24T19:29:23.508Z,21.05
2023-07-24T19:31:52.241Z,18.05
2023-07-24T19:34:19.969Z,18.92
2023-07-24T19:36:47.831Z,20.70
2023-07-24T19:39:15.326Z,20.83
2023-07-24T19:41:42.787Z,20.75
2023-07-24T19:44:10.829Z,23.73
2023-07-24T19:46:38.234Z,17.63
2023-07-24T19:49:05.846Z,18.05
2023-07-24T19:51:33.925Z,17.95
2023-07-24T19:54:01.607Z,20.55
2023-07-24T19:56:29.002Z,19.83
2023-07-24T19:58:56.817Z,25.43
2023-07-24T20:01:27.183Z,23.20
2023-07-24T20:03:55.106Z,18.25
2023-07-24T20:06:22.607Z,17.98
2023-07-24T20:08:50.208Z,21.75
2023-07-24T20:11:18.046Z,20.00
2023-07-24T20:13:45.594Z,21.12
2023-07-24T20:16:13.209Z,23.10
2023-07-24T20:18:41.114Z,21.90
2023-07-24T20:21:08.511Z,20.98
2023-07-24T20:23:36.083Z,19.35
2023-07-24T20:26:04.174Z,17.20
2023-07-24T20:28:31.637Z,19.70
2023-07-24T20:30:59.701Z,22.45
2023-07-24T20:33:28.016Z,16.58
2023-07-24T20:35:55.464Z,21.05
2023-07-24T20:38:28.334Z,22.13
2023-07-24T20:40:59.259Z,22.00
2023-07-24T20:43:26.727Z,21.25
2023-07-24T20:45:54.401Z,20.85
2023-07-24T20:48:23.178Z,26.98
2023-07-24T20:50:50.843Z,17.87
2023-07-24T20:53:18.268Z,28.33
2023-07-24T20:55:46.114Z,20.20
2023-07-24T20:58:13.708Z,22.90
2023-07-24T21:00:41.262Z,22.02
2023-07-24T21:03:09.138Z,21.97
2023-07-24T21:05:38.094Z,24.87
2023-07-24T21:08:06.373Z,20.08
2023-07-24T21:10:34.157Z,20.35
2023-07-24T21:13:01.611Z,19.67
2023-07-24T21:15:29.121Z,20.98
2023-07-24T21:17:57.006Z,25.83
2023-07-24T21:20:24.608Z,17.35
2023-07-24T21:22:52.181Z,20.12
2023-07-24T21:25:20.018Z,18.87
2023-07-24T21:27:47.483Z,17.10
2023-07-24T21:30:15.334Z,19.58
2023-07-24T21:32:43.260Z,16.35
2023-07-24T21:35:11.087Z,20.02
2023-07-24T21:37:40.242Z,19.58
2023-07-24T21:40:09.312Z,17.65
2023-07-24T21:42:36.767Z,18.30
2023-07-24T21:45:04.768Z,20.95
2023-07-24T21:47:32.553Z,23.58
2023-07-24T21:50:00.058Z,19.80
2023-07-24T21:52:27.454Z,20.00
2023-07-24T21:54:55.296Z,22.90
2023-07-24T21:57:22.847Z,23.08
2023-07-24T21:59:50.297Z,20.92
2023-07-24T22:02:18.089Z,19.42
2023-07-24T22:04:46.049Z,20.70
2023-07-24T22:07:13.495Z,18.23
2023-07-24T22:09:40.895Z,18.75
2023-07-24T22:12:08.971Z,19.48
2023-07-24T22:14:36.607Z,22.05
2023-07-24T22:17:04.385Z,22.48
2023-07-24T22:19:32.222Z,18.67
2023-07-24T22:21:59.793Z,21.85
2023-07-24T22:24:27.250Z,19.35
2023-07-24T22:26:54.978Z,18.83
2023-07-24T22:29:22.337Z,19.60
2023-07-24T22:31:49.731Z,17.33
2023-07-24T22:34:17.523Z,17.58
2023-07-24T22:36:45.140Z,21.05
2023-07-24T22:39:12.550Z,22.23
2023-07-24T22:41:40.392Z,23.55
2023-07-24T22:44:07.856Z,19.42
2023-07-24T22:46:35.358Z,19.42
2023-07-24T22:49:03.280Z,18.07
2023-07-24T22:51:30.990Z,19.50
2023-07-24T22:53:59.094Z,15.23
2023-07-24T22:56:27.094Z,19.08
2023-07-24T22:59:03.739Z,25.37
2023-07-24T23:01:33.376Z,17.67
2023-07-24T23:04:01.341Z,17.83
2023-07-24T23:06:28.851Z,18.75
2023-07-24T23:08:56.574Z,18.15
2023-07-24T23:11:23.914Z,16.62
2023-07-24T23:13:51.289Z,17.35
2023-07-24T23:16:18.899Z,21.65
2023-07-24T23:18:46.243Z,15.35
2023-07-24T23:21:13.686Z,18.52
2023-07-24T23:23:41.431Z,21.23
2023-07-24T23:26:09.002Z,19.73
2023-07-24T23:28:36.388Z,18.60
2023-07-24T23:31:05.503Z,24.52
2023-07-24T23:33:37.354Z,18.75
2023-07-24T23:36:08.211Z,24.27
2023-07-24T23:38:36.979Z,17.62
2023-07-24T23:41:06.496Z,25.60
2023-07-24T23:43:34.649Z,23.80
2023-07-24T23:46:09.145Z,20.20
2023-07-24T23:48:37.149Z,20.65
2023-07-24T23:51:04.533Z,21.62
2023-07-24T23:53:31.958Z,20.08
2023-07-24T23:55:59.766Z,19.23
2023-07-24T23:58:27.243Z,21.15
